createdAt,value
2023-03-03T00:00:59.126Z,101840.50
2023-03-03T00:03:27.281Z,101852.09
2023-03-03T00:05:54.877Z,101855.88
2023-03-03T00:08:23.080Z,101858.69
2023-03-03T00:10:51.132Z,101863.66
2023-03-03T00:13:22.710Z,101853.41
2023-03-03T00:15:51.657Z,101870.44
2023-03-03T00:18:36.326Z,101852.25
2023-03-03T00:21:29.229Z,101847.28
2023-03-03T00:24:22.774Z,101858.03
2023-03-03T00:27:00.357Z,101866.97
2023-03-03T00:29:37.311Z,101841.50
2023-03-03T00:32:24.038Z,101830.75
2023-03-03T00:34:54.785Z,101835.06
2023-03-03T00:37:34.649Z,101832.25
2023-03-03T00:40:27.672Z,101828.59
2023-03-03T00:42:58.549Z,101836.03
2023-03-03T00:45:38.827Z,101852.41
2023-03-03T00:48:38.010Z,101833.56
2023-03-03T00:51:36.648Z,101822.31
2023-03-03T00:54:04.312Z,101826.28
2023-03-03T00:56:31.550Z,101824.31
2023-03-03T00:58:58.912Z,101826.78
2023-03-03T01:01:28.370Z,101817.34
2023-03-03T01:03:55.951Z,101808.09
2023-03-03T01:06:23.045Z,101816.69
2023-03-03T01:08:50.305Z,101804.47
2023-03-03T01:11:24.120Z,101812.41
2023-03-03T01:13:53.388Z,101810.75
2023-03-03T01:16:21.563Z,101822.31
2023-03-03T01:18:48.794Z,101794.53
2023-03-03T01:21:15.760Z,101808.59
2023-03-03T01:23:42.722Z,101805.63
2023-03-03T01:26:10.626Z,101795.72
2023-03-03T01:28:39.057Z,101803.97
2023-03-03T01:31:06.708Z,101801.31
2023-03-03T01:33:35.953Z,101792.91
2023-03-03T01:36:04.361Z,101787.09
2023-03-03T01:38:31.768Z,101789.25
2023-03-03T01:40:59.997Z,101779.34
2023-03-03T01:43:32.169Z,101779.66
2023-03-03T01:45:59.234Z,101785.44
2023-03-03T01:48:35.085Z,101781.66
2023-03-03T01:51:17.824Z,101782.47
2023-03-03T01:53:49.247Z,101784.78
2023-03-03T01:56:16.543Z,101774.22
2023-03-03T01:58:52.998Z,101777.19
2023-03-03T02:01:23.431Z,101780.00
2023-03-03T02:03:51.337Z,101775.69
2023-03-03T02:06:23.081Z,101771.72
2023-03-03T02:09:08.121Z,101776.69
2023-03-03T02:11:38.108Z,101789.09
2023-03-03T02:14:05.285Z,101789.44
2023-03-03T02:16:32.489Z,101796.69
2023-03-03T02:19:00.086Z,101781.31
2023-03-03T02:21:28.685Z,101786.13
2023-03-03T02:24:21.001Z,101790.91
2023-03-03T02:26:48.595Z,101784.78
2023-03-03T02:29:15.672Z,101797.53
2023-03-03T02:31:43.925Z,101798.34
2023-03-03T02:34:11.331Z,101806.78
2023-03-03T02:36:40.370Z,101796.84
2023-03-03T02:39:18.109Z,101795.22
2023-03-03T02:42:22.530Z,101789.09
2023-03-03T02:44:53.915Z,101779.16
2023-03-03T02:47:21.174Z,101790.25
2023-03-03T02:49:48.209Z,101786.09
2023-03-03T02:52:17.964Z,101786.94
2023-03-03T02:54:46.632Z,101784.44
2023-03-03T02:57:13.605Z,101794.22
2023-03-03T02:59:40.816Z,101786.13
2023-03-03T03:02:13.629Z,101786.44
2023-03-03T03:04:41.609Z,101788.25
2023-03-03T03:07:10.239Z,101791.56
2023-03-03T03:09:38.316Z,101788.25
2023-03-03T03:12:05.630Z,101796.53
2023-03-03T03:14:35.009Z,101780.31
2023-03-03T03:17:02.130Z,101793.88
2023-03-03T03:19:29.185Z,101807.94
2023-03-03T03:21:58.825Z,101816.38
2023-03-03T03:24:26.522Z,101813.72
2023-03-03T03:26:58.009Z,101809.25
2023-03-03T03:29:26.989Z,101821.00
2023-03-03T03:31:54.177Z,101808.75
2023-03-03T03:34:21.225Z,101819.16
2023-03-03T03:36:49.835Z,101818.84
2023-03-03T03:39:18.827Z,101820.00
2023-03-03T03:41:47.682Z,101824.78
2023-03-03T03:44:14.962Z,101814.53
2023-03-03T03:46:42.668Z,101799.00
2023-03-03T03:49:10.657Z,101808.41
2023-03-03T03:51:41.416Z,101808.25
2023-03-03T03:54:10.751Z,101805.94
2023-03-03T03:56:38.618Z,101809.25
2023-03-03T03:59:09.140Z,101797.50
2023-03-03T04:01:37.616Z,101800.81
2023-03-03T04:04:05.054Z,101785.78
2023-03-03T04:06:32.346Z,101789.75
2023-03-03T04:08:59.330Z,101781.63
2023-03-03T04:11:28.250Z,101768.06
2023-03-03T04:13:55.319Z,101768.41
2023-03-03T04:16:22.934Z,101760.47
2023-03-03T04:18:50.894Z,101770.72
2023-03-03T04:21:18.181Z,101765.75
2023-03-03T04:23:46.464Z,101769.72
2023-03-03T04:26:13.673Z,101765.13
2023-03-03T04:28:42.047Z,101783.13
2023-03-03T04:31:10.608Z,101781.00
2023-03-03T04:33:37.617Z,101764.63
2023-03-03T04:36:06.252Z,101771.56
2023-03-03T04:38:33.336Z,101768.91
2023-03-03T04:41:00.449Z,101771.72
2023-03-03T04:43:30.272Z,101763.97
2023-03-03T04:45:57.738Z,101769.44
2023-03-03T04:48:24.759Z,101781.28
2023-03-03T04:50:52.080Z,101772.53
2023-03-03T04:53:20.038Z,101759.47
2023-03-03T04:55:47.234Z,101777.00
2023-03-03T04:58:16.023Z,101770.03
2023-03-03T05:00:43.447Z,101773.34
2023-03-03T05:03:13.837Z,101786.72
2023-03-03T05:05:42.218Z,101776.31
2023-03-03T05:08:09.286Z,101774.31
2023-03-03T05:10:36.869Z,101773.97
2023-03-03T05:13:04.077Z,101781.41
2023-03-03T05:15:31.498Z,101773.13
2023-03-03T05:17:58.553Z,101777.59
2023-03-03T05:20:26.259Z,101774.59
2023-03-03T05:22:53.434Z,101769.97
2023-03-03T05:25:22.443Z,101778.69
2023-03-03T05:27:49.423Z,101777.69
2023-03-03T05:30:16.521Z,101775.81
2023-03-03T05:32:43.537Z,101777.75
2023-03-03T05:35:10.776Z,101780.22
2023-03-03T05:37:40.020Z,101785.13
2023-03-03T05:40:08.149Z,101796.16
2023-03-03T05:42:35.272Z,101799.47
2023-03-03T05:45:02.312Z,101800.81
2023-03-03T05:47:29.898Z,101804.13
2023-03-03T05:49:56.793Z,101808.78
2023-03-03T05:52:24.679Z,101808.13
2023-03-03T05:54:51.697Z,101799.06
2023-03-03T05:57:19.024Z,101800.56
2023-03-03T05:59:46.237Z,101803.72
2023-03-03T06:02:13.233Z,101806.53
2023-03-03T06:04:40.423Z,101807.22
2023-03-03T06:07:07.463Z,101811.34
2023-03-03T06:09:34.527Z,101808.41
2023-03-03T06:12:01.627Z,101813.03
2023-03-03T06:14:28.625Z,101798.69
2023-03-03T06:16:57.900Z,101805.31
2023-03-03T06:19:25.460Z,101805.81
2023-03-03T06:21:52.501Z,101802.03
2023-03-03T06:24:19.590Z,101815.25
2023-03-03T06:26:46.757Z,101821.03
2023-03-03T06:29:15.524Z,101818.56
2023-03-03T06:31:43.484Z,101819.56
2023-03-03T06:34:11.007Z,101827.34
2023-03-03T06:36:37.937Z,101821.25
2023-03-03T06:39:04.965Z,101828.19
2023-03-03T06:41:32.091Z,101825.38
2023-03-03T06:44:00.214Z,101818.59
2023-03-03T06:46:27.658Z,101826.53
2023-03-03T06:48:54.876Z,101822.22
2023-03-03T06:51:31.161Z,101828.66
2023-03-03T06:54:02.714Z,101845.50
2023-03-03T06:56:31.186Z,101841.38
2023-03-03T06:59:02.876Z,101860.38
2023-03-03T07:01:36.681Z,101859.41
2023-03-03T07:04:31.599Z,101856.59
2023-03-03T07:07:08.493Z,101860.88
2023-03-03T07:09:35.748Z,101866.53
2023-03-03T07:12:16.533Z,101850.63
2023-03-03T07:14:47.903Z,101854.59
2023-03-03T07:17:19.780Z,101860.69
2023-03-03T07:19:48.187Z,101868.13
2023-03-03T07:22:25.671Z,101877.22
2023-03-03T07:24:55.325Z,101873.28
2023-03-03T07:27:30.843Z,101866.84
2023-03-03T07:30:28.489Z,101882.72
2023-03-03T07:32:58.976Z,101872.00
2023-03-03T07:35:41.302Z,101884.41
2023-03-03T07:38:41.049Z,101874.31
2023-03-03T07:41:35.158Z,101875.66
2023-03-03T07:44:10.132Z,101886.13
2023-03-03T07:46:42.774Z,101880.50
2023-03-03T07:49:37.412Z,101892.75
2023-03-03T07:52:39.539Z,101889.63
2023-03-03T07:55:41.767Z,101892.75
2023-03-03T07:58:12.704Z,101899.53
2023-03-03T08:00:39.581Z,101891.13
2023-03-03T08:03:17.704Z,101885.66
2023-03-03T08:05:48.152Z,101895.09
2023-03-03T08:08:42.566Z,101885.16
2023-03-03T08:11:09.654Z,101898.06
2023-03-03T08:13:38.777Z,101883.34
2023-03-03T08:16:11.795Z,101886.16
2023-03-03T08:18:53.192Z,101873.75
2023-03-03T08:21:23.228Z,101882.19
2023-03-03T08:23:51.770Z,101865.81
2023-03-03T08:26:20.563Z,101881.03
2023-03-03T08:28:48.023Z,101888.13
2023-03-03T08:31:25.212Z,101893.09
2023-03-03T08:34:01.630Z,101882.84
2023-03-03T08:36:28.504Z,101891.44
2023-03-03T08:38:55.538Z,101887.13
2023-03-03T08:41:22.472Z,101891.78
2023-03-03T08:43:49.454Z,101891.13
2023-03-03T08:46:16.404Z,101888.63
2023-03-03T08:48:43.390Z,101892.94
2023-03-03T08:51:10.317Z,101885.81
2023-03-03T08:53:40.914Z,101887.97
2023-03-03T08:56:08.718Z,101896.38
2023-03-03T08:58:36.675Z,101897.41
2023-03-03T09:01:04.915Z,101896.41
2023-03-03T09:03:32.001Z,101883.81
2023-03-03T09:05:58.914Z,101881.66
2023-03-03T09:08:26.056Z,101879.97
2023-03-03T09:10:53.189Z,101879.50
2023-03-03T09:13:20.612Z,101869.72
2023-03-03T09:15:49.343Z,101874.34
2023-03-03T09:18:27.305Z,101880.81
2023-03-03T09:20:57.476Z,101885.09
2023-03-03T09:23:33.183Z,101872.34
2023-03-03T09:26:47.427Z,101884.56
2023-03-03T09:29:14.395Z,101886.88
2023-03-03T09:32:00.833Z,101884.53
2023-03-03T09:34:36.682Z,101882.69
2023-03-03T09:37:29.543Z,101889.47
2023-03-03T09:39:57.629Z,101878.84
2023-03-03T09:43:00.612Z,101870.00
2023-03-03T09:46:00.968Z,101883.34
2023-03-03T09:49:26.999Z,101893.25
2023-03-03T09:52:22.437Z,101890.09
2023-03-03T09:55:14.139Z,101879.41
2023-03-03T09:58:10.622Z,101885.56
2023-03-03T10:01:32.308Z,101873.94
2023-03-03T10:04:37.192Z,101881.72
2023-03-03T10:07:37.219Z,101878.13
2023-03-03T10:10:15.145Z,101881.00
2023-03-03T10:13:07.763Z,101883.13
2023-03-03T10:16:10.598Z,101885.31
2023-03-03T10:18:56.634Z,101888.19
2023-03-03T10:21:35.457Z,101884.19
2023-03-03T10:24:30.024Z,101883.97
2023-03-03T10:27:14.200Z,101877.00
2023-03-03T10:30:13.079Z,101879.47
2023-03-03T10:33:02.484Z,101876.16
2023-03-03T10:36:06.679Z,101875.88
2023-03-03T10:39:02.419Z,101870.91
2023-03-03T10:42:22.305Z,101873.38
2023-03-03T10:45:17.265Z,101889.31
2023-03-03T10:47:46.936Z,101879.81
2023-03-03T10:50:56.960Z,101890.47
2023-03-03T10:53:34.397Z,101886.41
2023-03-03T10:56:22.083Z,101882.78
2023-03-03T10:59:14.390Z,101885.69
2023-03-03T11:02:07.123Z,101889.03
2023-03-03T11:04:51.300Z,101880.72
2023-03-03T11:07:40.591Z,101888.50
2023-03-03T11:10:35.404Z,101891.25
2023-03-03T11:13:30.943Z,101883.41
2023-03-03T11:16:17.431Z,101868.28
2023-03-03T11:19:08.678Z,101869.28
2023-03-03T11:21:47.636Z,101887.44
2023-03-03T11:24:26.155Z,101875.78
2023-03-03T11:27:12.724Z,101876.44
2023-03-03T11:30:24.892Z,101882.59
2023-03-03T11:33:10.469Z,101872.06
2023-03-03T11:35:59.146Z,101878.84
2023-03-03T11:38:49.174Z,101872.78
2023-03-03T11:41:31.085Z,101848.13
2023-03-03T11:44:35.706Z,101860.34
2023-03-03T11:47:21.163Z,101872.06
2023-03-03T11:49:56.601Z,101866.34
2023-03-03T11:52:45.966Z,101864.03
2023-03-03T11:55:17.825Z,101863.03
2023-03-03T11:58:08.486Z,101867.28
2023-03-03T12:01:01.233Z,101858.28
2023-03-03T12:03:48.033Z,101843.94
2023-03-03T12:06:44.932Z,101835.97
2023-03-03T12:09:31.735Z,101831.41
2023-03-03T12:12:08.326Z,101839.63
2023-03-03T12:14:59.755Z,101835.66
2023-03-03T12:18:05.033Z,101821.66
2023-03-03T12:21:05.333Z,101816.53
2023-03-03T12:24:04.825Z,101812.34
2023-03-03T12:26:52.427Z,101811.88
2023-03-03T12:29:37.942Z,101807.19
2023-03-03T12:32:45.698Z,101797.88
2023-03-03T12:35:29.533Z,101817.72
2023-03-03T12:38:41.326Z,101817.47
2023-03-03T12:41:33.269Z,101801.63
2023-03-03T12:44:16.803Z,101807.19
2023-03-03T12:46:43.660Z,101806.72
2023-03-03T12:49:10.527Z,101797.25
2023-03-03T12:52:09.502Z,101792.25
2023-03-03T12:54:46.060Z,101786.53
2023-03-03T12:57:45.547Z,101785.41
2023-03-03T13:00:24.577Z,101788.34
2023-03-03T13:03:08.221Z,101784.47
2023-03-03T13:06:02.408Z,101784.16
2023-03-03T13:08:46.534Z,101770.25
2023-03-03T13:11:42.039Z,101767.69
2023-03-03T13:14:45.410Z,101767.75
2023-03-03T13:17:35.111Z,101757.19
2023-03-03T13:20:12.383Z,101758.47
2023-03-03T13:22:59.957Z,101755.59
2023-03-03T13:25:42.059Z,101760.19
2023-03-03T13:28:44.120Z,101752.22
2023-03-03T13:31:18.664Z,101751.66
2023-03-03T13:33:57.229Z,101754.78
2023-03-03T13:36:52.697Z,101761.88
2023-03-03T13:39:27.234Z,101763.69
2023-03-03T13:42:03.551Z,101757.09
2023-03-03T13:44:42.653Z,101751.69
2023-03-03T13:47:33.664Z,101756.78
2023-03-03T13:50:41.529Z,101761.88
2023-03-03T13:53:15.485Z,101746.44
2023-03-03T13:55:50.715Z,101744.34
2023-03-03T13:58:50.892Z,101740.28
2023-03-03T14:01:48.443Z,101737.03
2023-03-03T14:04:49.312Z,101736.00
2023-03-03T14:07:33.600Z,101746.66
2023-03-03T14:10:25.643Z,101737.91
2023-03-03T14:13:04.186Z,101739.16
2023-03-03T14:15:50.444Z,101739.94
2023-03-03T14:18:55.918Z,101726.84
2023-03-03T14:21:43.273Z,101717.63
2023-03-03T14:24:23.038Z,101724.41
2023-03-03T14:26:58.420Z,101715.59
2023-03-03T14:29:28.234Z,101713.56
2023-03-03T14:31:57.489Z,101724.84
2023-03-03T14:34:24.209Z,101711.47
2023-03-03T14:36:58.532Z,101713.63
2023-03-03T14:39:36.405Z,101710.31
2023-03-03T14:42:31.408Z,101707.88
2023-03-03T14:45:01.079Z,101695.56
2023-03-03T14:47:29.966Z,101703.84
2023-03-03T14:50:02.952Z,101691.38
2023-03-03T14:52:33.494Z,101684.25
2023-03-03T14:55:06.108Z,101693.25
2023-03-03T14:57:41.481Z,101681.59
2023-03-03T15:00:14.836Z,101678.72
2023-03-03T15:02:43.573Z,101680.56
2023-03-03T15:05:26.063Z,101677.22
2023-03-03T15:08:05.283Z,101690.72
2023-03-03T15:10:40.175Z,101698.44
2023-03-03T15:13:38.217Z,101690.34
2023-03-03T15:16:21.124Z,101681.94
2023-03-03T15:19:18.972Z,101682.72
2023-03-03T15:22:18.779Z,101680.16
2023-03-03T15:25:05.334Z,101679.28
2023-03-03T15:27:42.230Z,101672.03
2023-03-03T15:30:31.102Z,101661.53
2023-03-03T15:33:15.642Z,101669.69
2023-03-03T15:36:00.180Z,101657.69
2023-03-03T15:39:00.376Z,101659.88
2023-03-03T15:41:45.299Z,101667.72
2023-03-03T15:44:21.217Z,101661.72
2023-03-03T15:46:57.977Z,101661.06
2023-03-03T15:50:06.548Z,101657.16
2023-03-03T15:53:07.944Z,101654.88
2023-03-03T15:56:05.156Z,101654.56
2023-03-03T15:59:02.568Z,101662.47
2023-03-03T16:02:21.674Z,101652.03
2023-03-03T16:05:15.464Z,101654.69
2023-03-03T16:08:13.803Z,101650.00
2023-03-03T16:10:54.746Z,101645.13
2023-03-03T16:13:45.749Z,101631.25
2023-03-03T16:16:49.551Z,101640.44
2023-03-03T16:19:47.816Z,101653.09
2023-03-03T16:22:49.784Z,101644.03
2023-03-03T16:25:55.916Z,101638.63
2023-03-03T16:29:08.799Z,101642.97
2023-03-03T16:31:58.264Z,101635.06
2023-03-03T16:34:45.451Z,101633.81
2023-03-03T16:37:32.910Z,101637.03
2023-03-03T16:40:17.340Z,101632.91
2023-03-03T16:42:44.514Z,101637.41
2023-03-03T16:45:28.340Z,101634.56
2023-03-03T16:47:58.558Z,101641.72
2023-03-03T16:50:39.487Z,101638.59
2023-03-03T16:54:11.064Z,101630.19
2023-03-03T16:56:52.558Z,101638.72
2023-03-03T16:59:53.074Z,101621.88
2023-03-03T17:02:49.168Z,101631.88
2023-03-03T17:05:57.833Z,101638.56
2023-03-03T17:08:46.743Z,101640.97
2023-03-03T17:11:41.078Z,101637.88
2023-03-03T17:14:42.652Z,101640.06
2023-03-03T17:17:47.108Z,101637.34
2023-03-03T17:20:38.155Z,101632.75
2023-03-03T17:23:33.460Z,101627.56
2023-03-03T17:26:54.438Z,101627.28
2023-03-03T17:29:51.537Z,101625.53
2023-03-03T17:32:32.797Z,101623.59
2023-03-03T17:35:15.339Z,101634.59
2023-03-03T17:38:32.724Z,101631.66
2023-03-03T17:41:30.100Z,101625.44
2023-03-03T17:44:41.232Z,101627.47
2023-03-03T17:47:27.474Z,101613.91
2023-03-03T17:50:11.315Z,101612.34
2023-03-03T17:52:58.757Z,101621.13
2023-03-03T17:55:45.974Z,101626.25
2023-03-03T17:58:27.576Z,101618.13
2023-03-03T18:01:10.310Z,101626.53
2023-03-03T18:04:01.729Z,101620.69
2023-03-03T18:07:08.615Z,101622.16
2023-03-03T18:09:54.945Z,101617.47
2023-03-03T18:13:00.246Z,101617.00
2023-03-03T18:16:11.559Z,101612.16
2023-03-03T18:19:03.515Z,101613.81
2023-03-03T18:21:38.757Z,101614.91
2023-03-03T18:24:34.995Z,101618.88
2023-03-03T18:27:23.681Z,101613.47
2023-03-03T18:30:28.605Z,101595.59
2023-03-03T18:33:01.779Z,101604.66
2023-03-03T18:35:39.061Z,101607.59
2023-03-03T18:38:18.201Z,101598.25
2023-03-03T18:41:00.229Z,101591.28
2023-03-03T18:43:45.340Z,101590.72
2023-03-03T18:46:22.651Z,101592.81
2023-03-03T18:49:08.087Z,101597.94
2023-03-03T18:51:35.179Z,101601.22
2023-03-03T18:54:12.026Z,101584.91
2023-03-03T18:56:48.414Z,101595.19
2023-03-03T18:59:30.764Z,101592.06
2023-03-03T19:02:12.690Z,101586.31
2023-03-03T19:04:44.891Z,101593.06
2023-03-03T19:07:43.577Z,101593.53
2023-03-03T19:10:22.313Z,101584.91
2023-03-03T19:13:00.990Z,101586.94
2023-03-03T19:15:31.421Z,101587.38
2023-03-03T19:18:03.566Z,101587.38
2023-03-03T19:20:46.217Z,101573.47
2023-03-03T19:23:52.590Z,101574.94
2023-03-03T19:26:21.034Z,101579.53
2023-03-03T19:29:13.023Z,101561.31
2023-03-03T19:32:32.430Z,101566.50
2023-03-03T19:35:28.237Z,101580.16
2023-03-03T19:38:23.118Z,101572.75
2023-03-03T19:41:40.298Z,101562.78
2023-03-03T19:44:47.989Z,101559.28
2023-03-03T19:47:40.059Z,101564.22
2023-03-03T19:50:25.733Z,101569.09
2023-03-03T19:53:18.701Z,101562.78
2023-03-03T19:55:55.034Z,101557.28
2023-03-03T19:58:50.738Z,101550.38
2023-03-03T20:02:10.759Z,101562.84
2023-03-03T20:05:14.990Z,101556.72
2023-03-03T20:08:01.088Z,101549.03
2023-03-03T20:10:57.509Z,101566.97
2023-03-03T20:14:37.759Z,101554.69
2023-03-03T20:17:30.963Z,101565.56
2023-03-03T20:20:31.723Z,101543.75
2023-03-03T20:24:05.917Z,101542.34
2023-03-03T20:26:47.039Z,101542.28
2023-03-03T20:29:41.994Z,101545.22
2023-03-03T20:32:54.923Z,101541.97
2023-03-03T20:36:18.252Z,101545.91
2023-03-03T20:39:05.188Z,101536.72
2023-03-03T20:41:41.175Z,101547.34
2023-03-03T20:44:10.758Z,101536.53
2023-03-03T20:47:05.310Z,101535.97
2023-03-03T20:49:49.444Z,101513.88
2023-03-03T20:53:20.650Z,101538.69
2023-03-03T20:56:19.876Z,101527.88
2023-03-03T20:59:12.881Z,101535.25
2023-03-03T21:02:10.189Z,101520.53
2023-03-03T21:04:38.228Z,101526.72
2023-03-03T21:07:06.002Z,101519.75
2023-03-03T21:09:39.274Z,101523.47
2023-03-03T21:12:32.721Z,101516.50
2023-03-03T21:15:26.015Z,101511.38
2023-03-03T21:17:55.004Z,101510.13
2023-03-03T21:20:34.982Z,101522.03
2023-03-03T21:23:03.069Z,101505.19
2023-03-03T21:25:44.030Z,101505.00
2023-03-03T21:28:33.515Z,101510.38
2023-03-03T21:31:13.503Z,101516.72
2023-03-03T21:33:48.141Z,101503.59
2023-03-03T21:36:37.199Z,101494.75
2023-03-03T21:39:25.939Z,101517.09
2023-03-03T21:42:03.331Z,101505.63
2023-03-03T21:44:52.292Z,101489.25
2023-03-03T21:47:22.253Z,101506.66
2023-03-03T21:49:51.988Z,101486.53
2023-03-03T21:52:21.653Z,101488.66
2023-03-03T21:54:52.098Z,101499.13
2023-03-03T21:57:19.369Z,101478.44
2023-03-03T21:59:46.470Z,101491.53
2023-03-03T22:02:13.521Z,101480.88
2023-03-03T22:04:41.069Z,101472.47
2023-03-03T22:07:09.654Z,101470.88
2023-03-03T22:09:38.323Z,101472.28
2023-03-03T22:12:07.729Z,101456.91
2023-03-03T22:14:35.070Z,101450.38
2023-03-03T22:17:02.388Z,101462.84
2023-03-03T22:19:30.006Z,101468.81
2023-03-03T22:21:57.057Z,101456.72
2023-03-03T22:24:24.062Z,101451.84
2023-03-03T22:26:51.199Z,101438.94
2023-03-03T22:29:22.681Z,101454.06
2023-03-03T22:31:51.274Z,101453.81
2023-03-03T22:34:18.667Z,101445.91
2023-03-03T22:36:45.623Z,101455.06
2023-03-03T22:39:12.655Z,101433.81
2023-03-03T22:41:39.595Z,101441.53
2023-03-03T22:44:06.576Z,101448.50
2023-03-03T22:46:33.518Z,101448.25
2023-03-03T22:49:00.494Z,101419.47
2023-03-03T22:51:27.380Z,101424.97
2023-03-03T22:53:54.393Z,101420.66
2023-03-03T22:56:21.258Z,101418.00
2023-03-03T22:58:49.100Z,101408.41
2023-03-03T23:01:16.185Z,101415.75
2023-03-03T23:03:43.065Z,101389.91
2023-03-03T23:06:10.145Z,101401.53
2023-03-03T23:08:37.041Z,101411.72
2023-03-03T23:11:04.242Z,101406.81
2023-03-03T23:13:32.320Z,101392.88
2023-03-03T23:16:00.306Z,101397.31
2023-03-03T23:18:28.583Z,101387.09
2023-03-03T23:20:57.059Z,101376.22
2023-03-03T23:23:24.536Z,101374.53
2023-03-03T23:25:51.731Z,101362.19
2023-03-03T23:28:19.308Z,101366.97
2023-03-03T23:30:46.482Z,101367.75
2023-03-03T23:33:13.701Z,101352.50
2023-03-03T23:35:40.996Z,101355.28
2023-03-03T23:38:08.021Z,101354.16
2023-03-03T23:40:35.140Z,101345.56
2023-03-03T23:43:02.044Z,101354.66
2023-03-03T23:45:29.171Z,101351.72
2023-03-03T23:47:56.144Z,101353.50
2023-03-03T23:50:23.142Z,101369.50
2023-03-03T23:52:50.141Z,101361.31
2023-03-03T23:55:17.117Z,101367.25
2023-03-03T23:57:44.084Z,101369.00
